CDT,Max TemperatureF,Mean TemperatureF,Min TemperatureF,Max Dew PointF,MeanDew PointF,Min DewpointF,Max Humidity, Mean Humidity, Min Humidity, Max Sea Level PressureIn, Mean Sea Level PressureIn, Min Sea Level PressureIn, Max VisibilityMiles, Mean VisibilityMiles, Min VisibilityMiles, Max Wind SpeedMPH, Mean Wind SpeedMPH, Max Gust SpeedMPH,PrecipitationIn, CloudCover, Events, WindDirDegrees
2012-10-1,68,60,55,63,56,52,100,86,63,29.75,29.64,29.59,10,9,4,22,12,29,0.62,7,Rain,11
2012-10-2,73,62,51,51,48,42,90,67,34,29.95,29.84,29.74,10,10,10,9,4,,0.00,0,,304
2012-10-3,78,64,52,57,53,49,93,72,42,30.12,30.03,29.94,10,10,10,13,5,16,0.00,0,,186
2012-10-4,82,70,57,63,58,53,96,73,38,30.23,30.16,30.12,10,10,7,10,3,17,0.00,0,,186
2012-10-5,84,65,46,62,55,43,100,80,49,30.15,30.07,29.92,10,9,4,24,10,37,0.29,4,Rain-Thunderstorm,160
2012-10-6,57,50,44,44,41,36,89,78,47,30.22,30.18,30.13,10,10,10,18,13,25,0.42,7,Rain-Thunderstorm,14
2012-10-7,57,50,43,45,40,36,90,71,44,30.27,30.22,30.17,10,10,10,12,6,,0.00,3,,6
2012-10-8,61,53,45,45,41,37,96,70,41,30.26,30.19,30.14,10,10,10,6,2,,0.04,4,Rain,1
2012-10-9,66,52,39,51,42,37,100,83,47,30.16,30.10,29.98,10,5,0,14,1,22,0.00,2,Fog,188
2012-10-10,66,58,50,54,43,32,88,60,28,30.25,30.17,30.04,10,10,10,21,5,28,0.00,3,,22
2012-10-11,61,56,51,57,47,35,93,74,49,30.28,30.22,30.18,10,9,2,7,4,,0.17,7,Rain,101
2012-10-12,73,65,57,64,61,56,100,89,73,30.29,30.20,30.15,10,8,3,12,5,,0.01,5,,51
2012-10-13,82,71,60,66,62,59,100,86,47,30.19,30.13,29.97,10,4,0,18,4,24,0.00,2,Fog,158
2012-10-14,77,67,57,66,62,56,97,81,57,29.98,29.93,29.88,10,9,2,22,13,36,0.28,4,Rain,208
2012-10-15,77,62,48,54,49,44,100,74,32,30.06,30.01,29.95,10,8,1,5,1,,0.01,0,,282
2012-10-16,75,62,52,53,52,49,89,71,45,29.97,29.88,29.79,10,10,10,13,7,18,0.00,0,,185
2012-10-17,80,67,54,66,58,50,100,75,50,29.79,29.65,29.45,10,9,1,25,12,37,0.71,4,Rain-Thunderstorm,199
2012-10-18,70,60,50,57,46,30,100,74,24,29.83,29.76,29.71,10,7,0,17,2,30,0.01,0,Fog,242
2012-10-19,66,55,43,43,38,34,93,51,34,29.88,29.78,29.73,10,10,9,14,7,24,0.00,5,,271
2012-10-20,71,55,39,47,43,39,97,69,35,29.98,29.92,29.88,10,10,7,12,2,,0.00,0,,167
2012-10-21,80,66,51,53,49,45,83,60,39,30.03,29.99,29.94,10,10,10,15,7,24,0.00,1,,173
2012-10-22,80,68,57,57,51,45,78,57,29,30.12,30.04,30.01,10,10,5,17,9,26,0.00,0,,180
2012-10-23,80,68,55,61,54,51,84,66,36,30.08,30.02,29.97,10,10,10,17,8,24,0.00,0,,181
2012-10-24,82,69,57,65,59,53,93,77,52,30.09,30.02,29.96,10,10,10,14,5,18,0.00,1,,170
2012-10-25,81,70,59,63,59,55,90,73,50,30.01,29.94,29.89,10,10,10,16,9,24,0.00,2,,179
2012-10-26,54,48,42,48,42,35,93,84,63,30.22,30.15,30.03,10,9,3,22,17,34,0.08,8,Rain-Thunderstorm,16
2012-10-27,55,46,37,37,34,31,83,64,41,30.20,30.16,30.10,10,10,10,21,13,28,0.00,1,,9
2012-10-28,57,47,37,35,33,31,83,65,39,30.21,30.16,30.13,10,10,10,17,9,23,0.00,0,,2
2012-10-29,57,46,34,33,30,24,89,63,30,30.28,30.19,30.09,10,10,10,16,6,24,0.00,0,,347
2012-10-30,61,48,36,40,30,23,79,56,24,30.08,30.01,29.93,10,10,10,9,4,,0.00,1,,311
2012-10-31,64,50,37,39,35,30,97,65,29,30.01,29.97,29.95,10,10,8,9,2,,0.00,1,,329